Time;durP1;ratioP1;P1;durP2;ratioP2;P2;SDS_P1;SDS_P2;PMS_P1;PMS_P2;Temp;Humidity;BMP_temperature;BMP_pressure;BME280_temperature;BME280_humidity;BME280_pressure;Samples;Min_cycle;Max_cycle;Signal;HPM_P1;HPM_P2
2022/01/23 00:00:51;;;;;;;52.30;28.33;;;6.70;99.90;;;;;;5057884;28;20491;-81
2022/01/23 00:03:19;;;;;;;47.10;28.77;;;6.80;99.90;;;;;;5073967;28;20377;-82
2022/01/23 00:05:47;;;;;;;45.57;27.23;;;6.80;99.90;;;;;;5074285;28;20338;-82
2022/01/23 00:08:15;;;;;;;50.83;29.80;;;6.70;99.90;;;;;;5056500;28;20484;-82
2022/01/23 00:10:41;;;;;;;44.43;28.30;;;6.80;99.90;;;;;;5072894;28;20070;-82
2022/01/23 00:13:17;;;;;;;48.10;28.60;;;6.80;99.90;;;;;;5050799;28;20126;-80
2022/01/23 00:18:28;;;;;;;49.40;27.50;;;6.80;99.90;;;;;;5073256;28;20512;-82
2022/01/23 00:20:55;;;;;;;51.33;29.73;;;6.80;99.90;;;;;;5075455;28;20473;-82
2022/01/23 00:31:28;;;;;;;52.93;29.77;;;6.70;99.90;;;;;;5080370;28;20075;-82
2022/01/23 00:33:55;;;;;;;49.27;28.53;;;6.70;99.90;;;;;;5075924;28;20079;-82
2022/01/23 00:36:25;;;;;;;50.17;28.70;;;6.80;99.90;;;;;;5060505;28;20388;-83
2022/01/23 00:38:51;;;;;;;48.50;27.97;;;6.80;99.90;;;;;;5078943;28;20082;-83
2022/01/23 00:41:17;;;;;;;49.33;29.50;;;6.80;99.90;;;;;;5078152;28;20028;-82
2022/01/23 00:43:44;;;;;;;48.07;30.10;;;6.80;99.90;;;;;;5073518;28;20509;-81
2022/01/23 00:48:41;;;;;;;48.27;29.60;;;6.80;99.90;;;;;;5073131;28;20039;-82
2022/01/23 00:51:07;;;;;;;50.10;29.87;;;6.80;99.90;;;;;;5070958;28;20032;-81
2022/01/23 00:53:32;;;;;;;50.70;29.50;;;6.80;99.90;;;;;;5052410;28;20070;-81
2022/01/23 00:55:58;;;;;;;53.43;30.83;;;6.80;99.90;;;;;;5069889;28;20469;-80
2022/01/23 00:58:24;;;;;;;52.20;29.70;;;6.80;99.90;;;;;;5080287;28;20055;-81
2022/01/23 01:00:50;;;;;;;50.27;29.03;;;6.80;99.90;;;;;;5043984;28;20041;-80
2022/01/23 01:03:15;;;;;;;47.73;29.30;;;6.80;99.90;;;;;;5070294;28;20042;-82
2022/01/23 01:05:41;;;;;;;51.23;29.57;;;6.80;99.90;;;;;;5050198;28;20060;-82
2022/01/23 01:08:07;;;;;;;52.17;31.27;;;6.80;99.90;;;;;;5066377;28;20065;-81
2022/01/23 01:10:55;;;;;;;49.87;30.07;;;6.80;99.90;;;;;;5052581;28;20392;-81
2022/01/23 01:13:21;;;;;;;52.50;30.67;;;6.80;99.90;;;;;;5061286;28;20053;-82
2022/01/23 01:16:12;;;;;;;51.17;30.23;;;6.80;99.90;;;;;;5071861;28;20032;-82
2022/01/23 01:32:30;;;;;;;49.63;28.27;;;6.80;99.90;;;;;;5070509;28;20104;-82
2022/01/23 01:35:05;;;;;;;49.97;29.80;;;6.80;99.90;;;;;;5049786;28;20061;-82
2022/01/23 01:37:31;;;;;;;46.33;27.33;;;6.80;99.90;;;;;;5052992;28;20469;-82
2022/01/23 01:39:57;;;;;;;47.37;28.80;;;6.80;99.90;;;;;;5059412;28;20041;-82
2022/01/23 01:42:22;;;;;;;52.70;30.10;;;6.80;99.90;;;;;;5052869;28;20033;-81
2022/01/23 01:44:48;;;;;;;44.60;27.70;;;6.80;99.90;;;;;;5036040;28;20029;-81
2022/01/23 01:47:14;;;;;;;50.03;29.90;;;6.90;99.90;;;;;;5035010;28;20389;-82
2022/01/23 01:49:41;;;;;;;50.13;31.47;;;6.90;99.90;;;;;;5050529;28;20388;-81
2022/01/23 01:52:07;;;;;;;50.87;29.37;;;6.90;99.90;;;;;;5071413;28;20028;-81
2022/01/23 01:54:33;;;;;;;49.63;30.37;;;6.90;99.90;;;;;;5071520;28;20040;-81
2022/01/23 01:57:08;;;;;;;56.57;31.27;;;6.90;99.90;;;;;;5054743;28;20051;-81
2022/01/23 02:10:07;;;;;;;47.88;28.52;;;6.80;99.90;;;;;;5067858;28;20065;-83
2022/01/23 02:15:26;;;;;;;47.57;29.80;;;6.70;99.90;;;;;;5067039;28;20113;-82
2022/01/23 02:18:19;;;;;;;48.67;28.23;;;6.80;99.90;;;;;;5072197;28;20037;-82
2022/01/23 02:50:56;;;;;;;40.63;24.00;;;6.70;99.90;;;;;;5074777;28;19980;-83
2022/01/23 02:56:00;;;;;;;44.97;26.57;;;6.60;99.90;;;;;;5075199;28;20161;-83
2022/01/23 02:58:33;;;;;;;47.33;26.43;;;6.70;99.90;;;;;;5057807;28;20043;-83
2022/01/23 03:01:21;;;;;;;48.85;27.05;;;6.60;99.90;;;;;;5074149;28;20044;-82
2022/01/23 03:03:49;;;;;;;51.60;28.47;;;6.70;99.90;;;;;;5073621;28;20119;-82
2022/01/23 03:30:49;;;;;;;50.92;28.75;;;6.60;99.90;;;;;;5070013;28;20125;-81
2022/01/23 03:33:15;;;;;;;51.03;28.10;;;6.60;99.90;;;;;;5058431;28;20381;-81
2022/01/23 03:35:41;;;;;;;46.90;27.50;;;6.60;99.90;;;;;;5071311;28;20032;-81
2022/01/23 03:38:06;;;;;;;46.90;26.83;;;6.60;99.90;;;;;;5054454;28;20036;-82
2022/01/23 03:40:32;;;;;;;49.10;27.80;;;6.60;99.90;;;;;;5071526;28;20436;-81
2022/01/23 03:43:08;;;;;;;47.87;27.97;;;6.60;99.90;;;;;;5070289;28;20048;-82
2022/01/23 03:46:00;;;;;;;47.73;27.27;;;6.70;99.90;;;;;;5053808;28;20025;-82
2022/01/23 03:50:52;;;;;;;43.07;26.37;;;6.70;99.90;;;;;;5055024;28;20039;-82
2022/01/23 03:53:18;;;;;;;47.20;27.20;;;6.70;99.90;;;;;;5054930;28;20045;-81
2022/01/23 03:55:45;;;;;;;46.73;28.80;;;6.70;99.90;;;;;;5036548;28;20029;-81
2022/01/23 03:58:10;;;;;;;45.03;27.73;;;6.70;99.90;;;;;;5052964;28;20041;-82
2022/01/23 04:00:36;;;;;;;51.33;28.83;;;6.70;99.90;;;;;;5054551;28;20025;-82
2022/01/23 04:03:02;;;;;;;51.70;28.07;;;6.70;99.90;;;;;;5036234;28;20375;-82
2022/01/23 04:05:28;;;;;;;47.83;27.70;;;6.80;99.90;;;;;;5054384;28;20074;-82
2022/01/23 04:07:54;;;;;;;44.33;27.80;;;6.80;99.90;;;;;;5053353;28;20473;-82
2022/01/23 04:10:22;;;;;;;46.87;28.27;;;6.80;99.90;;;;;;5036253;28;20025;-82
2022/01/23 04:12:55;;;;;;;46.53;27.80;;;6.80;99.90;;;;;;5036586;28;20048;-81
2022/01/23 05:01:53;;;;;;;41.83;25.27;;;6.80;99.90;;;;;;5053452;28;20086;-83
2022/01/23 05:04:29;;;;;;;45.57;24.90;;;6.80;99.90;;;;;;5053103;28;20025;-82
2022/01/23 05:07:00;;;;;;;51.27;27.00;;;6.80;99.90;;;;;;5053269;28;20047;-83
2022/01/23 05:09:27;;;;;;;44.17;25.87;;;6.90;99.90;;;;;;5035745;28;20025;-82
2022/01/23 05:11:59;;;;;;;45.00;27.13;;;6.90;99.90;;;;;;5053138;28;20058;-82
2022/01/23 05:14:32;;;;;;;48.70;28.17;;;6.90;99.90;;;;;;5051871;28;20504;-82
2022/01/23 05:16:59;;;;;;;44.97;27.20;;;6.90;99.90;;;;;;5036171;28;20029;-83
2022/01/23 05:19:25;;;;;;;43.87;26.53;;;6.80;99.90;;;;;;5051838;28;20469;-83
2022/01/23 05:24:31;;;;;;;54.30;28.67;;;6.90;99.90;;;;;;5056071;28;20445;-82
2022/01/23 05:27:02;;;;;;;47.97;29.23;;;6.90;99.90;;;;;;5067112;28;20419;-80
2022/01/23 05:29:28;;;;;;;48.17;27.33;;;6.90;99.90;;;;;;5071469;28;20447;-81
2022/01/23 05:31:54;;;;;;;50.60;28.07;;;6.90;99.90;;;;;;5055036;28;20056;-82
2022/01/23 05:34:21;;;;;;;50.73;27.50;;;6.90;99.90;;;;;;5069514;28;20036;-82
2022/01/23 05:36:47;;;;;;;54.63;29.03;;;6.90;99.90;;;;;;5051370;28;20508;-82
2022/01/23 05:39:16;;;;;;;48.07;27.67;;;6.90;99.90;;;;;;5072644;28;20048;-83
2022/01/23 05:41:42;;;;;;;51.87;27.83;;;6.80;99.90;;;;;;5070954;28;20071;-80
2022/01/23 05:44:07;;;;;;;49.97;29.37;;;6.80;99.90;;;;;;5071303;28;20049;-81
2022/01/23 05:46:33;;;;;;;47.27;27.90;;;6.80;99.90;;;;;;5052515;28;20036;-81
2022/01/23 05:48:59;;;;;;;50.57;28.17;;;6.90;99.90;;;;;;5072647;28;20029;-81
2022/01/23 05:51:25;;;;;;;51.63;27.77;;;6.80;99.90;;;;;;5070275;28;20040;-80
2022/01/23 05:53:50;;;;;;;50.53;28.43;;;6.80;99.90;;;;;;5066807;28;20123;-81
2022/01/23 05:56:16;;;;;;;47.80;28.33;;;6.70;99.90;;;;;;5073005;28;20048;-80
2022/01/23 05:58:43;;;;;;;48.13;26.47;;;6.80;99.90;;;;;;5055650;28;20105;-82
2022/01/23 06:01:08;;;;;;;46.43;27.00;;;6.80;99.90;;;;;;5085370;28;20082;-81
2022/01/23 06:03:34;;;;;;;49.70;26.83;;;6.80;99.90;;;;;;5055992;28;20040;-80
2022/01/23 06:06:00;;;;;;;52.90;28.27;;;6.70;99.90;;;;;;5054966;28;20037;-81
2022/01/23 06:08:25;;;;;;;51.53;27.67;;;6.80;99.90;;;;;;5074918;28;20484;-80
2022/01/23 06:10:56;;;;;;;49.13;28.53;;;6.80;99.90;;;;;;5074060;28;20050;-81
2022/01/23 06:13:24;;;;;;;52.20;28.67;;;6.70;99.90;;;;;;5074585;28;20039;-80
2022/01/23 06:15:50;;;;;;;52.17;28.83;;;6.60;99.90;;;;;;5075274;28;20392;-81
2022/01/23 06:18:16;;;;;;;48.73;28.40;;;6.80;99.90;;;;;;5076511;28;20027;-82
2022/01/23 06:20:41;;;;;;;50.87;28.53;;;6.70;99.90;;;;;;5075047;28;20025;-82
2022/01/23 06:23:07;;;;;;;53.70;31.83;;;6.70;99.90;;;;;;5058121;28;20667;-82
2022/01/23 06:25:35;;;;;;;55.93;29.07;;;6.70;99.90;;;;;;5076062;28;20021;-82
2022/01/23 06:28:04;;;;;;;54.43;28.43;;;6.60;99.90;;;;;;5074741;28;20017;-82
2022/01/23 06:30:30;;;;;;;56.13;30.87;;;6.60;99.90;;;;;;5074783;28;20461;-82
2022/01/23 06:32:56;;;;;;;51.57;29.93;;;6.60;99.90;;;;;;5075950;28;20047;-82
2022/01/23 06:35:22;;;;;;;52.03;28.83;;;6.60;99.90;;;;;;5074879;28;20028;-81
2022/01/23 06:37:47;;;;;;;48.30;27.43;;;6.60;99.90;;;;;;5074354;28;20306;-82
2022/01/23 06:40:13;;;;;;;50.80;28.40;;;6.60;99.90;;;;;;5074761;28;20037;-81
2022/01/23 06:42:39;;;;;;;52.23;28.77;;;6.60;99.90;;;;;;5057466;28;20091;-82
2022/01/23 06:45:05;;;;;;;49.90;28.43;;;6.60;99.90;;;;;;5076162;28;20036;-81
2022/01/23 06:47:30;;;;;;;49.40;27.67;;;6.60;99.90;;;;;;5074300;28;20020;-81
2022/01/23 06:49:57;;;;;;;51.90;29.27;;;6.60;99.90;;;;;;5074325;28;20055;-82
2022/01/23 06:52:22;;;;;;;51.70;28.70;;;6.70;99.90;;;;;;5074222;28;20082;-82
2022/01/23 06:54:48;;;;;;;49.37;27.40;;;6.70;99.90;;;;;;5057756;28;20032;-82
2022/01/23 06:57:14;;;;;;;46.57;27.43;;;6.60;99.90;;;;;;5057588;28;20115;-82
2022/01/23 06:59:39;;;;;;;51.30;28.07;;;6.70;99.90;;;;;;5068870;28;20032;-82
2022/01/23 07:02:05;;;;;;;47.73;27.00;;;6.70;99.90;;;;;;5069658;28;20029;-82
2022/01/23 07:04:30;;;;;;;47.27;27.73;;;6.70;99.90;;;;;;5072047;28;20036;-83
2022/01/23 07:06:57;;;;;;;51.60;28.07;;;6.70;99.90;;;;;;5071430;28;20115;-83
2022/01/23 07:09:22;;;;;;;48.97;28.17;;;6.70;99.90;;;;;;5074492;28;20384;-82
2022/01/23 07:11:48;;;;;;;50.23;26.73;;;6.70;99.90;;;;;;5058666;28;20040;-82
2022/01/23 07:14:14;;;;;;;47.43;29.03;;;6.70;99.90;;;;;;5068541;28;20404;-83
2022/01/23 07:16:39;;;;;;;49.03;29.43;;;6.70;99.90;;;;;;5063467;28;20048;-82
2022/01/23 07:19:05;;;;;;;50.30;28.20;;;6.70;99.90;;;;;;5049477;28;20032;-82
2022/01/23 07:21:31;;;;;;;46.53;26.50;;;6.70;99.90;;;;;;5063241;28;20028;-80
2022/01/23 07:23:57;;;;;;;48.40;27.87;;;6.70;99.90;;;;;;5071807;28;20037;-81
2022/01/23 07:26:25;;;;;;;51.83;28.47;;;6.70;99.90;;;;;;5057009;28;20070;-82
2022/01/23 07:28:53;;;;;;;47.10;28.00;;;6.70;99.90;;;;;;5071308;28;20048;-83
2022/01/23 07:32:07;;;;;;;52.63;28.83;;;6.70;99.90;;;;;;5073564;28;20027;-82
2022/01/23 07:34:10;;;;;;;46.03;25.33;;;6.70;99.90;;;;;;5060440;28;20072;-83
2022/01/23 07:36:36;;;;;;;51.50;27.43;;;6.70;99.90;;;;;;5070132;28;20036;-82
2022/01/23 07:39:03;;;;;;;47.93;28.23;;;6.70;99.90;;;;;;5052982;28;20037;-82
2022/01/23 07:41:29;;;;;;;47.07;27.03;;;6.70;99.90;;;;;;5054570;28;20025;-82
2022/01/23 07:43:55;;;;;;;55.57;27.77;;;6.70;99.90;;;;;;5036587;28;20143;-82
2022/01/23 07:46:21;;;;;;;44.37;25.93;;;6.70;99.90;;;;;;5070271;28;20033;-81
2022/01/23 07:48:47;;;;;;;52.33;28.83;;;6.80;99.90;;;;;;5052953;28;20029;-81
2022/01/23 07:51:13;;;;;;;49.40;27.57;;;6.80;99.90;;;;;;5054317;28;20052;-81
2022/01/23 07:53:39;;;;;;;48.33;26.53;;;6.80;99.90;;;;;;5036222;28;20087;-82
2022/01/23 07:56:04;;;;;;;46.10;27.80;;;6.80;99.90;;;;;;5053279;28;20470;-82
2022/01/23 07:58:30;;;;;;;48.57;26.80;;;6.80;99.90;;;;;;5054078;28;20057;-82
2022/01/23 08:00:56;;;;;;;45.83;26.07;;;6.80;99.90;;;;;;5036397;28;20033;-83
2022/01/23 08:03:21;;;;;;;46.90;25.47;;;6.80;99.90;;;;;;5067445;28;20028;-83
2022/01/23 08:05:47;;;;;;;45.00;28.00;;;6.80;99.90;;;;;;5072190;28;20112;-84
2022/01/23 08:08:13;;;;;;;43.83;26.20;;;6.80;99.90;;;;;;5054803;28;20028;-82
2022/01/23 08:10:39;;;;;;;43.97;27.03;;;6.80;99.90;;;;;;5073961;28;20037;-84
2022/01/23 08:13:05;;;;;;;45.57;26.67;;;6.80;99.90;;;;;;5073026;28;20032;-85
2022/01/23 08:15:32;;;;;;;45.53;26.13;;;6.80;99.90;;;;;;5083402;28;20021;-83
2022/01/23 08:18:06;;;;;;;40.17;24.40;;;6.90;99.90;;;;;;5066275;28;20066;-83
2022/01/23 08:20:33;;;;;;;43.10;24.67;;;6.90;99.90;;;;;;5072050;28;20020;-83
2022/01/23 08:23:01;;;;;;;41.73;23.73;;;6.80;99.90;;;;;;5055806;28;20412;-82
2022/01/23 08:25:28;;;;;;;40.90;25.00;;;6.90;99.90;;;;;;5067360;28;20020;-82
2022/01/23 08:27:54;;;;;;;41.50;25.10;;;6.90;99.90;;;;;;5072495;28;20029;-83
2022/01/23 08:30:20;;;;;;;43.80;24.90;;;6.90;99.90;;;;;;5070739;28;20580;-84
2022/01/23 08:32:46;;;;;;;41.93;24.90;;;7.00;99.90;;;;;;5054999;28;20036;-81
2022/01/23 08:35:11;;;;;;;41.80;23.83;;;6.90;99.90;;;;;;5072813;28;20039;-83
2022/01/23 08:37:37;;;;;;;41.83;25.67;;;7.00;99.90;;;;;;5073459;28;20063;-82
2022/01/23 08:40:05;;;;;;;43.23;24.80;;;7.00;99.90;;;;;;5073431;28;20020;-83
2022/01/23 08:42:31;;;;;;;42.03;24.70;;;7.00;99.90;;;;;;5072835;28;20032;-81
2022/01/23 08:44:57;;;;;;;39.83;23.97;;;7.00;99.90;;;;;;5073284;28;20064;-83
2022/01/23 08:47:23;;;;;;;38.30;22.60;;;7.10;99.90;;;;;;5069998;28;20500;-83
2022/01/23 08:49:50;;;;;;;39.97;24.30;;;7.10;99.90;;;;;;5071767;28;20029;-82
2022/01/23 08:52:20;;;;;;;35.23;21.93;;;7.10;99.90;;;;;;5071616;28;20032;-83
2022/01/23 08:54:51;;;;;;;32.00;20.90;;;7.10;99.90;;;;;;5055338;28;20052;-82
2022/01/23 08:57:18;;;;;;;33.50;20.33;;;7.10;99.90;;;;;;5054638;28;20033;-83
2022/01/23 08:59:44;;;;;;;34.40;21.90;;;7.20;99.90;;;;;;5050049;28;20131;-83
2022/01/23 09:02:10;;;;;;;31.13;20.40;;;7.20;99.90;;;;;;5067685;28;20035;-84
2022/01/23 09:04:36;;;;;;;34.63;21.63;;;7.20;99.90;;;;;;5052197;28;20020;-83
2022/01/23 09:07:03;;;;;;;32.30;19.33;;;7.20;99.90;;;;;;5051818;28;20024;-84
2022/01/23 09:09:31;;;;;;;33.57;20.80;;;7.30;99.90;;;;;;5052011;28;20562;-83
2022/01/23 09:12:20;;;;;;;33.70;19.73;;;7.30;99.90;;;;;;5051046;28;20032;-82
2022/01/23 09:14:43;;;;;;;32.90;19.03;;;7.40;99.90;;;;;;5053110;28;20036;-84
2022/01/23 09:17:10;;;;;;;29.90;18.27;;;7.30;99.90;;;;;;5059498;28;20027;-83
2022/01/23 09:19:35;;;;;;;30.63;18.80;;;7.30;99.90;;;;;;5070861;28;20028;-81
2022/01/23 09:22:01;;;;;;;30.13;18.77;;;7.40;99.90;;;;;;5070775;28;20029;-84
2022/01/23 09:24:29;;;;;;;28.67;17.50;;;7.30;99.90;;;;;;5068844;28;20115;-83
2022/01/23 09:27:02;;;;;;;31.80;19.23;;;7.30;99.90;;;;;;5071755;28;20021;-83
2022/01/23 09:29:33;;;;;;;29.57;19.20;;;7.30;99.90;;;;;;5073070;28;20047;-84
2022/01/23 09:31:59;;;;;;;35.37;21.53;;;7.40;99.90;;;;;;5060621;28;20024;-82
2022/01/23 09:34:27;;;;;;;33.10;20.43;;;7.40;99.90;;;;;;5075807;28;20514;-80
2022/01/23 09:36:56;;;;;;;35.87;22.20;;;7.40;99.90;;;;;;5075978;28;20487;-81
2022/01/23 09:39:23;;;;;;;37.40;22.43;;;7.40;99.90;;;;;;5059209;28;20090;-80
2022/01/23 09:41:59;;;;;;;37.10;22.57;;;7.50;99.90;;;;;;5075476;28;20033;-82
2022/01/23 09:44:27;;;;;;;35.73;21.47;;;7.50;99.90;;;;;;5077581;28;20045;-81
2022/01/23 09:46:55;;;;;;;39.40;22.53;;;7.50;99.90;;;;;;5075121;28;20036;-81
2022/01/23 09:49:22;;;;;;;32.63;21.07;;;7.50;99.90;;;;;;5055415;28;20048;-80
2022/01/23 09:51:49;;;;;;;33.97;21.63;;;7.50;99.90;;;;;;5056289;28;20064;-80
2022/01/23 09:54:16;;;;;;;33.30;21.13;;;7.50;99.90;;;;;;5080279;28;20408;-81
2022/01/23 09:56:43;;;;;;;31.47;19.67;;;7.50;99.90;;;;;;5077150;28;20027;-80
2022/01/23 09:59:11;;;;;;;30.93;19.43;;;7.60;99.90;;;;;;5054892;28;20083;-82
2022/01/23 10:01:40;;;;;;;31.77;18.70;;;7.60;99.90;;;;;;5072292;28;20033;-81
2022/01/23 10:04:06;;;;;;;29.37;18.10;;;7.60;99.90;;;;;;5072194;28;20021;-80
2022/01/23 10:06:32;;;;;;;29.13;18.37;;;7.70;99.90;;;;;;5071396;28;20203;-80
2022/01/23 10:08:59;;;;;;;29.23;18.77;;;7.70;99.90;;;;;;5071381;28;20112;-81
2022/01/23 10:11:29;;;;;;;31.30;19.17;;;7.70;99.90;;;;;;5073872;28;20032;-81
2022/01/23 10:13:55;;;;;;;28.60;18.20;;;7.80;99.90;;;;;;5073956;28;20036;-81
2022/01/23 10:16:21;;;;;;;25.60;16.30;;;7.80;99.90;;;;;;5070538;28;20033;-80
2022/01/23 10:18:48;;;;;;;27.07;16.93;;;7.90;99.90;;;;;;5076111;28;20028;-81
2022/01/23 10:21:14;;;;;;;24.63;15.80;;;7.90;99.90;;;;;;5074158;28;20056;-81
2022/01/23 10:23:40;;;;;;;24.97;15.93;;;7.90;99.90;;;;;;5058493;28;20074;-80
2022/01/23 10:26:06;;;;;;;22.93;15.47;;;8.10;99.90;;;;;;5075424;28;20028;-81
2022/01/23 10:28:34;;;;;;;22.53;14.63;;;8.10;99.90;;;;;;5069201;28;20033;-80
2022/01/23 10:31:05;;;;;;;20.70;13.40;;;8.20;99.90;;;;;;5071534;28;20033;-81
2022/01/23 10:33:34;;;;;;;21.40;14.00;;;8.20;99.90;;;;;;5055532;28;20033;-80
2022/01/23 10:36:06;;;;;;;23.87;14.20;;;8.30;99.90;;;;;;5056164;28;20025;-81
2022/01/23 10:38:33;;;;;;;21.03;13.70;;;8.40;99.90;;;;;;5054573;28;20078;-80
2022/01/23 10:49:54;;;;;;;15.97;9.67;;;8.60;99.90;;;;;;5075863;28;20024;-81
2022/01/23 10:52:35;;;;;;;15.63;9.95;;;8.70;99.90;;;;;;5074186;28;20041;-81
2022/01/23 10:55:21;;;;;;;16.90;10.27;;;8.80;99.90;;;;;;5074197;28;20476;-82
2022/01/23 10:57:50;;;;;;;13.13;7.77;;;8.80;99.90;;;;;;5074365;28;20497;-82
2022/01/23 11:00:27;;;;;;;13.60;9.00;;;8.90;99.90;;;;;;5075458;28;20472;-82
2022/01/23 11:02:54;;;;;;;13.03;7.13;;;8.90;99.90;;;;;;5074951;28;20440;-81
2022/01/23 11:05:21;;;;;;;11.27;6.17;;;9.00;99.90;;;;;;5074751;28;20032;-81
2022/01/23 11:07:48;;;;;;;9.50;5.40;;;9.10;99.90;;;;;;5073329;28;20020;-81
2022/01/23 11:10:22;;;;;;;9.37;4.83;;;9.10;99.90;;;;;;5073258;28;20491;-82
2022/01/23 11:18:04;;;;;;;7.53;3.78;;;9.20;99.80;;;;;;5073752;28;20036;-81
2022/01/23 11:20:30;;;;;;;5.53;2.77;;;9.30;99.80;;;;;;5066652;28;20028;-81
2022/01/23 11:23:19;;;;;;;3.63;1.60;;;9.30;99.20;;;;;;5070127;28;20029;-81
2022/01/23 11:26:07;;;;;;;3.07;1.17;;;9.40;98.90;;;;;;5071430;28;20060;-81
2022/01/23 11:28:37;;;;;;;2.37;1.07;;;9.40;98.60;;;;;;5089895;28;20021;-82
2022/01/23 11:31:08;;;;;;;1.80;0.70;;;9.30;98.30;;;;;;5090003;28;20082;-82
2022/01/23 11:33:34;;;;;;;1.70;0.60;;;9.50;98.00;;;;;;5073875;28;20044;-82
2022/01/23 11:36:02;;;;;;;1.67;0.60;;;9.50;97.80;;;;;;5073668;28;20491;-82
2022/01/23 11:38:29;;;;;;;1.47;0.63;;;9.40;97.50;;;;;;5071575;28;20051;-82
2022/01/23 11:55:07;;;;;;;0.90;0.30;;;9.50;96.20;;;;;;5074513;28;20047;-81
2022/01/23 11:57:41;;;;;;;1.47;0.40;;;9.50;95.90;;;;;;5056383;28;20025;-81
2022/01/23 12:00:20;;;;;;;0.40;0.20;;;9.50;95.60;;;;;;5086985;28;20137;-81
2022/01/23 12:03:11;;;;;;;1.47;0.50;;;9.40;95.30;;;;;;5074292;28;20107;-81
2022/01/23 12:05:39;;;;;;;3.43;1.03;;;9.50;95.10;;;;;;5073731;28;20116;-82
2022/01/23 12:08:20;;;;;;;2.33;0.90;;;9.50;95.10;;;;;;5073162;28;20111;-81
2022/01/23 12:11:24;;;;;;;1.80;0.80;;;9.50;94.90;;;;;;5074002;28;20115;-82
2022/01/23 12:16:23;;;;;;;2.37;0.77;;;9.50;94.70;;;;;;5072727;28;20118;-82
2022/01/23 12:17:21;;;;;;;1.80;0.70;;;9.50;94.60;;;;;;5073964;28;20420;-82
2022/01/23 12:19:56;;;;;;;3.30;0.93;;;9.50;94.60;;;;;;5071585;28;20036;-82
2022/01/23 12:22:35;;;;;;;1.87;0.60;;;9.60;94.30;;;;;;5074057;28;20087;-82
2022/01/23 12:25:23;;;;;;;2.23;0.60;;;9.50;94.20;;;;;;5073674;28;20111;-82
2022/01/23 12:28:11;;;;;;;1.30;0.60;;;9.60;94.10;;;;;;5073629;28;20067;-82
2022/01/23 12:30:37;;;;;;;1.37;0.40;;;9.50;94.00;;;;;;5072807;28;20020;-81
2022/01/23 12:33:15;;;;;;;1.13;0.40;;;9.50;93.90;;;;;;5073617;28;20028;-81
2022/01/23 12:35:44;;;;;;;1.43;0.40;;;9.50;93.80;;;;;;5072674;28;20046;-81
2022/01/23 12:38:12;;;;;;;1.00;0.30;;;9.50;93.80;;;;;;5071558;28;20416;-82
2022/01/23 12:40:46;;;;;;;0.90;0.40;;;9.50;93.80;;;;;;5066323;28;20123;-82
2022/01/23 12:43:15;;;;;;;0.70;0.20;;;9.50;93.70;;;;;;5073992;28;20082;-81
2022/01/23 12:45:54;;;;;;;0.50;0.20;;;9.50;93.60;;;;;;5072616;28;20085;-80
2022/01/23 12:48:26;;;;;;;0.70;0.30;;;9.50;93.50;;;;;;5073191;28;20119;-81
2022/01/23 12:51:01;;;;;;;0.90;0.20;;;9.50;93.30;;;;;;5073454;28;20384;-80
2022/01/23 12:53:43;;;;;;;1.43;0.30;;;9.50;93.20;;;;;;5074939;28;20058;-81
2022/01/23 12:56:12;;;;;;;0.83;0.20;;;9.50;93.00;;;;;;5076630;28;20035;-82
2022/01/23 12:58:39;;;;;;;0.57;0.20;;;9.50;93.00;;;;;;5072756;28;20465;-82
2022/01/23 13:01:20;;;;;;;1.47;0.30;;;9.50;92.80;;;;;;5074517;28;20170;-81
2022/01/23 13:03:57;;;;;;;0.60;0.10;;;9.50;92.40;;;;;;5073629;28;20016;-82
2022/01/23 13:06:44;;;;;;;0.93;0.30;;;9.60;92.40;;;;;;5072591;28;20444;-82
2022/01/23 13:09:48;;;;;;;0.40;0.20;;;9.50;92.20;;;;;;5072495;28;20021;-82
2022/01/23 13:12:26;;;;;;;1.20;0.40;;;9.50;92.00;;;;;;5073275;28;20040;-83
2022/01/23 13:31:56;;;;;;;0.83;0.30;;;9.20;91.50;;;;;;5073062;28;20125;-81
2022/01/23 13:34:29;;;;;;;1.53;0.40;;;9.30;91.40;;;;;;5071587;28;20036;-81
2022/01/23 13:37:02;;;;;;;1.77;0.40;;;9.30;91.40;;;;;;5072789;28;20107;-82
2022/01/23 13:39:45;;;;;;;2.55;0.50;;;9.30;91.40;;;;;;5071986;28;20028;-82
2022/01/23 13:42:52;;;;;;;1.77;0.40;;;9.30;91.40;;;;;;5073187;28;20032;-82
2022/01/23 13:59:49;;;;;;;2.60;0.90;;;9.40;91.10;;;;;;5072991;28;20036;-83
2022/01/23 14:02:34;;;;;;;2.30;0.80;;;9.40;90.90;;;;;;5071538;28;20020;-82
2022/01/23 14:05:05;;;;;;;2.80;0.80;;;9.40;90.80;;;;;;5071438;28;20021;-82
2022/01/23 14:07:32;;;;;;;2.30;0.90;;;9.40;90.80;;;;;;5072615;28;20020;-82
2022/01/23 14:10:08;;;;;;;2.90;1.10;;;9.40;90.80;;;;;;5073085;28;20029;-82
2022/01/23 14:12:34;;;;;;;2.30;1.17;;;9.40;90.80;;;;;;5071297;28;20021;-82
2022/01/23 14:15:05;;;;;;;3.00;1.33;;;9.30;90.80;;;;;;5073276;28;20386;-83
2022/01/23 14:17:36;;;;;;;3.30;1.30;;;9.30;90.80;;;;;;5076307;28;20016;-82
2022/01/23 14:20:16;;;;;;;3.90;1.57;;;9.30;90.90;;;;;;5076047;28;20028;-81
2022/01/23 14:22:47;;;;;;;2.87;1.30;;;9.30;90.90;;;;;;5074359;28;20036;-82
2022/01/23 14:25:17;;;;;;;3.13;1.13;;;9.30;90.90;;;;;;5058382;28;20052;-82
2022/01/23 14:27:47;;;;;;;4.27;1.20;;;9.30;90.90;;;;;;5074721;28;20531;-81
2022/01/23 14:30:17;;;;;;;6.37;1.63;;;9.20;90.90;;;;;;5074707;28;20063;-82
2022/01/23 14:32:53;;;;;;;5.00;1.73;;;9.20;90.90;;;;;;5074791;28;20028;-83
2022/01/23 14:35:24;;;;;;;4.13;1.40;;;9.20;90.90;;;;;;5075878;28;20418;-81
2022/01/23 14:37:52;;;;;;;3.87;1.67;;;9.20;90.90;;;;;;5074831;28;20055;-82
2022/01/23 14:40:24;;;;;;;2.97;1.40;;;9.20;90.90;;;;;;5074976;28;20059;-82
2022/01/23 14:43:00;;;;;;;3.43;1.40;;;9.10;90.80;;;;;;5075631;28;20491;-82
2022/01/23 14:45:28;;;;;;;3.53;1.33;;;9.10;90.80;;;;;;5075398;28;20079;-81
2022/01/23 14:47:54;;;;;;;3.53;1.70;;;9.10;90.80;;;;;;5074073;28;20021;-81
2022/01/23 14:50:28;;;;;;;3.47;1.40;;;9.10;90.80;;;;;;5076297;28;20067;-83
2022/01/23 14:52:54;;;;;;;;;;;9.00;90.70;;;;;;5074624;28;20042;-82
2022/01/23 14:55:20;;;;;;;4.37;1.67;;;9.00;90.80;;;;;;5068773;28;19909;-81
2022/01/23 14:57:47;;;;;;;4.00;1.80;;;9.10;90.80;;;;;;5064644;28;20037;-81
2022/01/23 15:00:14;;;;;;;4.30;1.67;;;9.00;90.70;;;;;;5070744;28;20536;-82
2022/01/23 15:02:42;;;;;;;5.30;2.20;;;9.00;90.70;;;;;;5020422;28;20493;-82
2022/01/23 15:05:10;;;;;;;5.67;2.60;;;9.00;90.70;;;;;;5054107;28;20090;-81
2022/01/23 15:07:44;;;;;;;4.83;2.10;;;9.00;90.60;;;;;;5054026;28;20469;-83
2022/01/23 15:10:10;;;;;;;6.00;2.10;;;8.90;90.50;;;;;;5020673;28;20025;-82
2022/01/23 15:12:37;;;;;;;4.93;2.30;;;8.90;90.50;;;;;;5055682;28;20032;-81
2022/01/23 15:15:04;;;;;;;5.10;2.20;;;8.90;90.50;;;;;;5053182;28;20386;-82
2022/01/23 15:17:29;;;;;;;4.77;2.10;;;8.90;90.50;;;;;;5054275;28;20025;-82
2022/01/23 15:19:55;;;;;;;5.53;2.27;;;8.90;90.50;;;;;;5053784;28;20024;-82
2022/01/23 15:22:23;;;;;;;4.77;2.03;;;8.90;90.60;;;;;;5053630;28;20094;-82
2022/01/23 15:24:50;;;;;;;6.70;2.43;;;8.80;90.60;;;;;;5055165;28;20017;-82
2022/01/23 15:27:16;;;;;;;6.13;2.50;;;8.80;90.70;;;;;;5068501;28;20025;-82
2022/01/23 15:29:43;;;;;;;4.53;1.93;;;8.80;90.80;;;;;;5072285;28;20120;-82
2022/01/23 15:32:09;;;;;;;3.93;1.77;;;8.90;90.80;;;;;;5048834;28;20036;-83
2022/01/23 15:34:36;;;;;;;4.17;1.80;;;8.90;90.90;;;;;;5065551;28;20043;-82
2022/01/23 15:37:03;;;;;;;6.77;1.83;;;8.80;90.90;;;;;;5074992;28;20029;-82
2022/01/23 15:39:30;;;;;;;4.27;1.70;;;8.80;90.90;;;;;;5073615;28;20028;-83
2022/01/23 15:41:56;;;;;;;4.80;1.80;;;8.80;91.00;;;;;;5057625;28;20031;-81
2022/01/23 15:44:23;;;;;;;4.47;2.03;;;8.80;91.00;;;;;;5072894;28;20053;-81
2022/01/23 15:46:50;;;;;;;5.07;2.03;;;8.80;91.00;;;;;;5056554;28;20190;-82
2022/01/23 15:49:17;;;;;;;4.90;2.40;;;8.80;91.00;;;;;;5073765;28;20029;-82
2022/01/23 15:51:47;;;;;;;4.63;1.90;;;8.80;91.00;;;;;;5073049;28;20496;-82
2022/01/23 15:54:18;;;;;;;3.37;1.60;;;8.70;91.00;;;;;;5073160;28;20040;-82
2022/01/23 15:56:47;;;;;;;4.27;1.70;;;8.70;91.00;;;;;;5073260;28;20611;-83
2022/01/23 15:59:14;;;;;;;5.80;1.60;;;8.70;91.00;;;;;;5074308;28;20586;-82
2022/01/23 16:01:44;;;;;;;5.50;2.10;;;8.70;91.00;;;;;;5073129;28;20032;-82
2022/01/23 16:04:10;;;;;;;4.40;1.93;;;8.60;91.00;;;;;;5056890;28;20042;-82
2022/01/23 16:06:35;;;;;;;3.83;1.90;;;8.60;91.10;;;;;;5073472;28;20540;-82
2022/01/23 16:09:01;;;;;;;4.33;1.83;;;8.60;91.20;;;;;;5072903;28;20067;-82
2022/01/23 16:11:27;;;;;;;3.70;1.57;;;8.60;91.30;;;;;;5074029;28;20366;-82
2022/01/23 16:13:52;;;;;;;4.90;2.03;;;8.60;91.30;;;;;;5074007;28;20428;-82
2022/01/23 16:16:18;;;;;;;4.40;1.73;;;8.60;91.30;;;;;;5056065;28;20123;-82
2022/01/23 16:18:44;;;;;;;3.50;1.50;;;8.50;91.30;;;;;;5072803;28;20024;-81
2022/01/23 16:21:10;;;;;;;4.20;2.00;;;8.50;91.30;;;;;;5073956;28;20392;-82
2022/01/23 16:23:35;;;;;;;5.40;2.33;;;8.60;91.30;;;;;;5055719;28;20120;-82